sensor_id;sensor_type;location;lat;lon;timestamp;P1;durP1;ratioP1;P2;durP2;ratioP2
15816;SDS011;8009;50.070;8.232;2023-06-24T00:00:07;14.20;;;13.70;;
15816;SDS011;8009;50.070;8.232;2023-06-24T00:02:38;15.57;;;14.98;;
15816;SDS011;8009;50.070;8.232;2023-06-24T00:05:09;14.27;;;13.77;;
15816;SDS011;8009;50.070;8.232;2023-06-24T00:07:39;15.02;;;14.45;;
15816;SDS011;8009;50.070;8.232;2023-06-24T00:10:12;12.73;;;12.23;;
15816;SDS011;8009;50.070;8.232;2023-06-24T00:12:41;14.40;;;13.90;;
15816;SDS011;8009;50.070;8.232;2023-06-24T00:15:10;17.10;;;16.40;;
15816;SDS011;8009;50.070;8.232;2023-06-24T00:17:38;15.55;;;14.95;;
15816;SDS011;8009;50.070;8.232;2023-06-24T00:20:07;15.18;;;14.57;;
15816;SDS011;8009;50.070;8.232;2023-06-24T00:22:42;14.55;;;14.05;;
15816;SDS011;8009;50.070;8.232;2023-06-24T00:25:13;15.35;;;14.75;;
15816;SDS011;8009;50.070;8.232;2023-06-24T00:27:43;14.32;;;13.82;;
15816;SDS011;8009;50.070;8.232;2023-06-24T00:30:11;14.23;;;13.73;;
15816;SDS011;8009;50.070;8.232;2023-06-24T00:32:40;13.18;;;12.68;;
15816;SDS011;8009;50.070;8.232;2023-06-24T00:35:09;14.43;;;13.93;;
15816;SDS011;8009;50.070;8.232;2023-06-24T00:37:41;14.07;;;13.57;;
15816;SDS011;8009;50.070;8.232;2023-06-24T00:40:12;14.88;;;14.27;;
15816;SDS011;8009;50.070;8.232;2023-06-24T00:42:41;16.35;;;15.75;;
15816;SDS011;8009;50.070;8.232;2023-06-24T00:45:10;15.65;;;15.05;;
15816;SDS011;8009;50.070;8.232;2023-06-24T00:47:39;16.60;;;15.93;;
15816;SDS011;8009;50.070;8.232;2023-06-24T00:50:09;14.38;;;13.88;;
15816;SDS011;8009;50.070;8.232;2023-06-24T00:52:38;15.25;;;14.65;;
15816;SDS011;8009;50.070;8.232;2023-06-24T00:55:10;13.40;;;12.90;;
15816;SDS011;8009;50.070;8.232;2023-06-24T00:57:40;14.65;;;14.15;;
15816;SDS011;8009;50.070;8.232;2023-06-24T01:00:09;13.25;;;12.75;;
15816;SDS011;8009;50.070;8.232;2023-06-24T01:02:41;14.40;;;13.90;;
15816;SDS011;8009;50.070;8.232;2023-06-24T01:05:10;14.50;;;14.00;;
15816;SDS011;8009;50.070;8.232;2023-06-24T01:07:39;14.80;;;14.30;;
15816;SDS011;8009;50.070;8.232;2023-06-24T01:10:11;14.67;;;14.17;;
15816;SDS011;8009;50.070;8.232;2023-06-24T01:12:40;14.48;;;13.98;;
15816;SDS011;8009;50.070;8.232;2023-06-24T01:15:09;15.10;;;14.50;;
15816;SDS011;8009;50.070;8.232;2023-06-24T01:17:41;14.53;;;13.93;;
15816;SDS011;8009;50.070;8.232;2023-06-24T01:20:18;14.23;;;13.73;;
15816;SDS011;8009;50.070;8.232;2023-06-24T01:23:08;15.40;;;14.80;;
15816;SDS011;8009;50.070;8.232;2023-06-24T01:25:56;14.77;;;14.27;;
15816;SDS011;8009;50.070;8.232;2023-06-24T01:28:37;14.40;;;13.90;;
15816;SDS011;8009;50.070;8.232;2023-06-24T01:31:32;14.83;;;14.33;;
15816;SDS011;8009;50.070;8.232;2023-06-24T01:34:06;12.83;;;12.33;;
15816;SDS011;8009;50.070;8.232;2023-06-24T01:36:43;13.80;;;13.30;;
15816;SDS011;8009;50.070;8.232;2023-06-24T01:39:17;14.63;;;14.13;;
15816;SDS011;8009;50.070;8.232;2023-06-24T01:41:52;15.80;;;15.20;;
15816;SDS011;8009;50.070;8.232;2023-06-24T01:44:26;16.60;;;16.00;;
15816;SDS011;8009;50.070;8.232;2023-06-24T01:46:59;15.17;;;14.57;;
15816;SDS011;8009;50.070;8.232;2023-06-24T01:49:31;16.27;;;15.67;;
15816;SDS011;8009;50.070;8.232;2023-06-24T01:51:59;14.63;;;14.13;;
15816;SDS011;8009;50.070;8.232;2023-06-24T01:54:28;15.20;;;14.60;;
15816;SDS011;8009;50.070;8.232;2023-06-24T01:56:59;14.77;;;14.20;;
15816;SDS011;8009;50.070;8.232;2023-06-24T01:59:29;14.63;;;14.13;;
15816;SDS011;8009;50.070;8.232;2023-06-24T02:02:02;14.30;;;13.80;;
15816;SDS011;8009;50.070;8.232;2023-06-24T02:04:33;14.20;;;13.70;;
15816;SDS011;8009;50.070;8.232;2023-06-24T02:07:03;13.53;;;13.03;;
15816;SDS011;8009;50.070;8.232;2023-06-24T02:09:32;13.03;;;12.53;;
15816;SDS011;8009;50.070;8.232;2023-06-24T02:12:01;14.10;;;13.60;;
15816;SDS011;8009;50.070;8.232;2023-06-24T02:14:30;14.17;;;13.67;;
15816;SDS011;8009;50.070;8.232;2023-06-24T02:17:05;13.27;;;12.77;;
15816;SDS011;8009;50.070;8.232;2023-06-24T02:19:37;12.73;;;12.23;;
15816;SDS011;8009;50.070;8.232;2023-06-24T02:22:06;11.97;;;11.57;;
15816;SDS011;8009;50.070;8.232;2023-06-24T02:24:37;12.10;;;11.70;;
15816;SDS011;8009;50.070;8.232;2023-06-24T02:27:06;13.30;;;12.80;;
15816;SDS011;8009;50.070;8.232;2023-06-24T02:29:36;12.90;;;12.40;;
15816;SDS011;8009;50.070;8.232;2023-06-24T02:32:08;13.47;;;12.97;;
15816;SDS011;8009;50.070;8.232;2023-06-24T02:34:37;13.77;;;13.27;;
15816;SDS011;8009;50.070;8.232;2023-06-24T02:37:07;13.03;;;12.53;;
15816;SDS011;8009;50.070;8.232;2023-06-24T02:39:35;12.67;;;12.17;;
15816;SDS011;8009;50.070;8.232;2023-06-24T02:42:09;13.17;;;12.67;;
15816;SDS011;8009;50.070;8.232;2023-06-24T02:44:37;12.80;;;12.30;;
15816;SDS011;8009;50.070;8.232;2023-06-24T02:47:09;13.33;;;12.83;;
15816;SDS011;8009;50.070;8.232;2023-06-24T02:49:40;13.33;;;12.83;;
15816;SDS011;8009;50.070;8.232;2023-06-24T02:52:11;14.70;;;14.20;;
15816;SDS011;8009;50.070;8.232;2023-06-24T02:54:41;12.03;;;11.63;;
15816;SDS011;8009;50.070;8.232;2023-06-24T02:57:09;13.63;;;13.13;;
15816;SDS011;8009;50.070;8.232;2023-06-24T02:59:39;13.30;;;12.80;;
15816;SDS011;8009;50.070;8.232;2023-06-24T03:02:10;14.30;;;13.80;;
15816;SDS011;8009;50.070;8.232;2023-06-24T03:04:38;17.00;;;16.40;;
15816;SDS011;8009;50.070;8.232;2023-06-24T03:07:07;14.00;;;13.50;;
15816;SDS011;8009;50.070;8.232;2023-06-24T03:09:36;14.50;;;14.00;;
15816;SDS011;8009;50.070;8.232;2023-06-24T03:12:05;13.27;;;12.77;;
15816;SDS011;8009;50.070;8.232;2023-06-24T03:14:34;15.13;;;14.57;;
15816;SDS011;8009;50.070;8.232;2023-06-24T03:17:03;15.27;;;14.67;;
15816;SDS011;8009;50.070;8.232;2023-06-24T03:19:34;14.27;;;13.77;;
15816;SDS011;8009;50.070;8.232;2023-06-24T03:22:03;15.17;;;14.57;;
15816;SDS011;8009;50.070;8.232;2023-06-24T03:24:31;14.07;;;13.57;;
15816;SDS011;8009;50.070;8.232;2023-06-24T03:26:59;13.87;;;13.37;;
15816;SDS011;8009;50.070;8.232;2023-06-24T03:29:28;15.27;;;14.67;;
15816;SDS011;8009;50.070;8.232;2023-06-24T03:31:56;15.87;;;15.27;;
15816;SDS011;8009;50.070;8.232;2023-06-24T03:34:24;15.43;;;14.83;;
15816;SDS011;8009;50.070;8.232;2023-06-24T03:36:55;15.13;;;14.53;;
15816;SDS011;8009;50.070;8.232;2023-06-24T03:39:24;14.77;;;14.23;;
15816;SDS011;8009;50.070;8.232;2023-06-24T03:41:53;14.80;;;14.30;;
15816;SDS011;8009;50.070;8.232;2023-06-24T03:44:21;13.23;;;12.73;;
15816;SDS011;8009;50.070;8.232;2023-06-24T03:46:49;13.80;;;13.30;;
15816;SDS011;8009;50.070;8.232;2023-06-24T03:49:17;13.57;;;13.07;;
15816;SDS011;8009;50.070;8.232;2023-06-24T03:51:46;14.97;;;14.40;;
15816;SDS011;8009;50.070;8.232;2023-06-24T03:54:17;13.60;;;13.10;;
15816;SDS011;8009;50.070;8.232;2023-06-24T03:56:45;14.43;;;13.93;;
15816;SDS011;8009;50.070;8.232;2023-06-24T03:59:13;13.33;;;12.83;;
15816;SDS011;8009;50.070;8.232;2023-06-24T04:01:41;13.90;;;13.40;;
15816;SDS011;8009;50.070;8.232;2023-06-24T04:04:10;13.00;;;12.50;;
15816;SDS011;8009;50.070;8.232;2023-06-24T04:06:38;13.47;;;12.97;;
15816;SDS011;8009;50.070;8.232;2023-06-24T04:09:06;14.10;;;13.60;;
15816;SDS011;8009;50.070;8.232;2023-06-24T04:11:37;13.37;;;12.87;;
15816;SDS011;8009;50.070;8.232;2023-06-24T04:14:06;13.57;;;12.97;;
15816;SDS011;8009;50.070;8.232;2023-06-24T04:16:34;14.00;;;13.50;;
15816;SDS011;8009;50.070;8.232;2023-06-24T04:19:03;13.20;;;12.70;;
15816;SDS011;8009;50.070;8.232;2023-06-24T04:21:31;13.10;;;12.60;;
15816;SDS011;8009;50.070;8.232;2023-06-24T04:23:59;13.90;;;13.40;;
15816;SDS011;8009;50.070;8.232;2023-06-24T04:26:27;12.97;;;12.47;;
15816;SDS011;8009;50.070;8.232;2023-06-24T04:28:58;14.70;;;14.20;;
15816;SDS011;8009;50.070;8.232;2023-06-24T04:31:27;13.23;;;12.73;;
15816;SDS011;8009;50.070;8.232;2023-06-24T04:33:55;13.37;;;12.87;;
15816;SDS011;8009;50.070;8.232;2023-06-24T04:36:24;13.20;;;12.70;;
15816;SDS011;8009;50.070;8.232;2023-06-24T04:38:52;12.93;;;12.43;;
15816;SDS011;8009;50.070;8.232;2023-06-24T04:41:21;11.63;;;11.23;;
15816;SDS011;8009;50.070;8.232;2023-06-24T04:43:50;12.60;;;12.10;;
15816;SDS011;8009;50.070;8.232;2023-06-24T04:46:21;12.87;;;12.37;;
15816;SDS011;8009;50.070;8.232;2023-06-24T04:48:51;12.73;;;12.23;;
15816;SDS011;8009;50.070;8.232;2023-06-24T04:51:20;12.90;;;12.40;;
15816;SDS011;8009;50.070;8.232;2023-06-24T04:53:48;12.03;;;11.63;;
15816;SDS011;8009;50.070;8.232;2023-06-24T04:56:16;13.67;;;13.17;;
15816;SDS011;8009;50.070;8.232;2023-06-24T04:58:45;12.43;;;11.97;;
15816;SDS011;8009;50.070;8.232;2023-06-24T05:01:13;13.33;;;12.83;;
15816;SDS011;8009;50.070;8.232;2023-06-24T05:03:44;13.37;;;12.87;;
15816;SDS011;8009;50.070;8.232;2023-06-24T05:06:12;12.70;;;12.20;;
15816;SDS011;8009;50.070;8.232;2023-06-24T05:08:40;12.80;;;12.30;;
15816;SDS011;8009;50.070;8.232;2023-06-24T05:11:09;13.00;;;12.50;;
15816;SDS011;8009;50.070;8.232;2023-06-24T05:13:37;14.47;;;13.97;;
15816;SDS011;8009;50.070;8.232;2023-06-24T05:16:05;14.90;;;14.33;;
15816;SDS011;8009;50.070;8.232;2023-06-24T05:18:34;13.53;;;13.03;;
15816;SDS011;8009;50.070;8.232;2023-06-24T05:21:05;13.20;;;12.70;;
15816;SDS011;8009;50.070;8.232;2023-06-24T05:23:33;13.43;;;12.93;;
15816;SDS011;8009;50.070;8.232;2023-06-24T05:26:01;14.70;;;14.20;;
15816;SDS011;8009;50.070;8.232;2023-06-24T05:28:30;15.07;;;14.50;;
15816;SDS011;8009;50.070;8.232;2023-06-24T05:30:58;13.30;;;12.80;;
15816;SDS011;8009;50.070;8.232;2023-06-24T05:33:26;14.05;;;13.55;;
15816;SDS011;8009;50.070;8.232;2023-06-24T05:35:54;12.57;;;12.07;;
15816;SDS011;8009;50.070;8.232;2023-06-24T05:38:25;13.50;;;13.00;;
15816;SDS011;8009;50.070;8.232;2023-06-24T05:40:54;14.50;;;14.00;;
15816;SDS011;8009;50.070;8.232;2023-06-24T05:43:22;14.37;;;13.83;;
15816;SDS011;8009;50.070;8.232;2023-06-24T05:45:50;13.43;;;12.93;;
15816;SDS011;8009;50.070;8.232;2023-06-24T05:48:19;14.70;;;14.20;;
15816;SDS011;8009;50.070;8.232;2023-06-24T05:50:47;15.07;;;14.47;;
15816;SDS011;8009;50.070;8.232;2023-06-24T05:53:15;14.47;;;13.97;;
15816;SDS011;8009;50.070;8.232;2023-06-24T05:55:46;13.45;;;12.95;;
15816;SDS011;8009;50.070;8.232;2023-06-24T05:58:14;12.63;;;12.13;;
15816;SDS011;8009;50.070;8.232;2023-06-24T06:00:43;14.00;;;13.40;;
15816;SDS011;8009;50.070;8.232;2023-06-24T06:03:11;14.52;;;14.02;;
15816;SDS011;8009;50.070;8.232;2023-06-24T06:05:39;14.90;;;14.33;;
15816;SDS011;8009;50.070;8.232;2023-06-24T06:08:08;13.50;;;13.00;;
15816;SDS011;8009;50.070;8.232;2023-06-24T06:10:36;15.30;;;14.70;;
15816;SDS011;8009;50.070;8.232;2023-06-24T06:13:07;12.90;;;12.40;;
15816;SDS011;8009;50.070;8.232;2023-06-24T06:15:35;14.50;;;14.00;;
15816;SDS011;8009;50.070;8.232;2023-06-24T06:18:03;14.10;;;13.60;;
15816;SDS011;8009;50.070;8.232;2023-06-24T06:20:32;14.75;;;14.20;;
15816;SDS011;8009;50.070;8.232;2023-06-24T06:23:00;13.70;;;13.20;;
15816;SDS011;8009;50.070;8.232;2023-06-24T06:25:28;14.50;;;14.00;;
15816;SDS011;8009;50.070;8.232;2023-06-24T06:27:57;14.57;;;13.97;;
15816;SDS011;8009;50.070;8.232;2023-06-24T06:30:28;15.02;;;14.43;;
15816;SDS011;8009;50.070;8.232;2023-06-24T06:32:56;13.73;;;13.23;;
15816;SDS011;8009;50.070;8.232;2023-06-24T06:35:24;15.55;;;14.95;;
15816;SDS011;8009;50.070;8.232;2023-06-24T06:37:53;15.27;;;14.68;;
15816;SDS011;8009;50.070;8.232;2023-06-24T06:40:21;14.60;;;14.10;;
15816;SDS011;8009;50.070;8.232;2023-06-24T06:42:49;13.80;;;13.30;;
15816;SDS011;8009;50.070;8.232;2023-06-24T06:45:18;15.25;;;14.65;;
15816;SDS011;8009;50.070;8.232;2023-06-24T06:47:49;14.90;;;14.32;;
15816;SDS011;8009;50.070;8.232;2023-06-24T06:50:18;14.50;;;14.00;;
15816;SDS011;8009;50.070;8.232;2023-06-24T06:52:46;15.02;;;14.43;;
15816;SDS011;8009;50.070;8.232;2023-06-24T06:55:14;14.02;;;13.52;;
15816;SDS011;8009;50.070;8.232;2023-06-24T06:57:43;15.30;;;14.70;;
15816;SDS011;8009;50.070;8.232;2023-06-24T07:00:11;14.98;;;14.40;;
15816;SDS011;8009;50.070;8.232;2023-06-24T07:02:40;15.20;;;14.60;;
15816;SDS011;8009;50.070;8.232;2023-06-24T07:05:11;14.52;;;14.02;;
15816;SDS011;8009;50.070;8.232;2023-06-24T07:07:39;13.95;;;13.45;;
15816;SDS011;8009;50.070;8.232;2023-06-24T07:10:10;14.60;;;14.10;;
15816;SDS011;8009;50.070;8.232;2023-06-24T07:12:38;14.65;;;14.10;;
15816;SDS011;8009;50.070;8.232;2023-06-24T07:15:07;14.90;;;14.32;;
15816;SDS011;8009;50.070;8.232;2023-06-24T07:17:36;15.45;;;14.85;;
15816;SDS011;8009;50.070;8.232;2023-06-24T07:20:05;14.45;;;13.90;;
15816;SDS011;8009;50.070;8.232;2023-06-24T07:22:36;14.63;;;14.13;;
15816;SDS011;8009;50.070;8.232;2023-06-24T07:25:05;15.52;;;14.93;;
15816;SDS011;8009;50.070;8.232;2023-06-24T07:27:33;15.50;;;14.90;;
15816;SDS011;8009;50.070;8.232;2023-06-24T07:30:02;17.77;;;17.08;;
15816;SDS011;8009;50.070;8.232;2023-06-24T07:32:37;18.58;;;17.88;;
15816;SDS011;8009;50.070;8.232;2023-06-24T07:35:06;18.67;;;17.98;;
15816;SDS011;8009;50.070;8.232;2023-06-24T07:37:38;19.00;;;18.30;;
15816;SDS011;8009;50.070;8.232;2023-06-24T07:40:07;18.58;;;17.88;;
15816;SDS011;8009;50.070;8.232;2023-06-24T07:42:36;16.75;;;16.15;;
15816;SDS011;8009;50.070;8.232;2023-06-24T07:45:05;17.40;;;16.75;;
15816;SDS011;8009;50.070;8.232;2023-06-24T07:47:34;14.82;;;14.30;;
15816;SDS011;8009;50.070;8.232;2023-06-24T07:50:02;15.30;;;14.70;;
15816;SDS011;8009;50.070;8.232;2023-06-24T07:52:31;16.30;;;15.70;;
15816;SDS011;8009;50.070;8.232;2023-06-24T07:55:02;15.65;;;15.05;;
15816;SDS011;8009;50.070;8.232;2023-06-24T07:57:31;14.80;;;14.20;;
15816;SDS011;8009;50.070;8.232;2023-06-24T07:59:59;14.23;;;13.73;;
15816;SDS011;8009;50.070;8.232;2023-06-24T08:02:28;14.32;;;13.82;;
15816;SDS011;8009;50.070;8.232;2023-06-24T08:04:56;15.60;;;14.90;;
15816;SDS011;8009;50.070;8.232;2023-06-24T08:07:24;15.98;;;15.38;;
15816;SDS011;8009;50.070;8.232;2023-06-24T08:09:53;15.70;;;15.10;;
15816;SDS011;8009;50.070;8.232;2023-06-24T08:12:23;15.55;;;14.95;;
15816;SDS011;8009;50.070;8.232;2023-06-24T08:14:52;15.98;;;15.38;;
15816;SDS011;8009;50.070;8.232;2023-06-24T08:17:20;15.55;;;14.95;;
15816;SDS011;8009;50.070;8.232;2023-06-24T08:19:48;16.02;;;15.40;;
15816;SDS011;8009;50.070;8.232;2023-06-24T08:22:17;15.10;;;14.50;;
15816;SDS011;8009;50.070;8.232;2023-06-24T08:24:45;15.18;;;14.57;;
15816;SDS011;8009;50.070;8.232;2023-06-24T08:27:13;16.55;;;15.95;;
15816;SDS011;8009;50.070;8.232;2023-06-24T08:29:44;14.30;;;13.80;;
15816;SDS011;8009;50.070;8.232;2023-06-24T08:32:13;14.07;;;13.57;;
15816;SDS011;8009;50.070;8.232;2023-06-24T08:34:41;14.98;;;14.40;;
15816;SDS011;8009;50.070;8.232;2023-06-24T08:37:10;14.38;;;13.88;;
15816;SDS011;8009;50.070;8.232;2023-06-24T08:39:38;14.95;;;14.38;;
15816;SDS011;8009;50.070;8.232;2023-06-24T08:42:07;14.02;;;13.52;;
15816;SDS011;8009;50.070;8.232;2023-06-24T08:44:35;15.27;;;14.68;;
15816;SDS011;8009;50.070;8.232;2023-06-24T08:47:06;15.60;;;14.93;;
15816;SDS011;8009;50.070;8.232;2023-06-24T08:49:36;14.48;;;13.98;;
15816;SDS011;8009;50.070;8.232;2023-06-24T08:52:13;22.25;;;21.42;;
15816;SDS011;8009;50.070;8.232;2023-06-24T08:54:45;16.58;;;15.98;;
15816;SDS011;8009;50.070;8.232;2023-06-24T08:57:14;36.50;;;35.08;;
15816;SDS011;8009;50.070;8.232;2023-06-24T08:59:43;32.42;;;31.15;;
15816;SDS011;8009;50.070;8.232;2023-06-24T09:02:14;25.30;;;24.30;;
15816;SDS011;8009;50.070;8.232;2023-06-24T09:04:43;20.98;;;20.17;;
15816;SDS011;8009;50.070;8.232;2023-06-24T09:07:11;18.15;;;17.45;;
15816;SDS011;8009;50.070;8.232;2023-06-24T09:09:42;23.83;;;22.90;;
15816;SDS011;8009;50.070;8.232;2023-06-24T09:12:12;21.38;;;20.58;;
15816;SDS011;8009;50.070;8.232;2023-06-24T09:14:42;19.30;;;18.58;;
15816;SDS011;8009;50.070;8.232;2023-06-24T09:17:19;26.60;;;25.60;;
15816;SDS011;8009;50.070;8.232;2023-06-24T09:19:48;32.20;;;30.92;;
15816;SDS011;8009;50.070;8.232;2023-06-24T09:22:17;35.28;;;33.78;;
15816;SDS011;8009;50.070;8.232;2023-06-24T09:24:45;33.90;;;32.50;;
15816;SDS011;8009;50.070;8.232;2023-06-24T09:27:15;31.05;;;29.85;;
15816;SDS011;8009;50.070;8.232;2023-06-24T09:29:45;21.27;;;20.48;;
15816;SDS011;8009;50.070;8.232;2023-06-24T09:32:13;20.65;;;19.85;;
15816;SDS011;8009;50.070;8.232;2023-06-24T09:34:45;23.60;;;22.70;;
15816;SDS011;8009;50.070;8.232;2023-06-24T09:37:20;27.23;;;26.17;;
15816;SDS011;8009;50.070;8.232;2023-06-24T09:39:49;29.52;;;28.38;;
15816;SDS011;8009;50.070;8.232;2023-06-24T09:42:20;21.65;;;20.83;;
15816;SDS011;8009;50.070;8.232;2023-06-24T09:44:52;27.00;;;25.95;;
15816;SDS011;8009;50.070;8.232;2023-06-24T09:47:21;31.58;;;30.35;;
15816;SDS011;8009;50.070;8.232;2023-06-24T09:49:53;67.15;;;64.47;;
15816;SDS011;8009;50.070;8.232;2023-06-24T09:52:21;55.92;;;53.72;;
15816;SDS011;8009;50.070;8.232;2023-06-24T09:54:51;76.13;;;73.07;;
15816;SDS011;8009;50.070;8.232;2023-06-24T09:57:23;70.38;;;67.60;;
15816;SDS011;8009;50.070;8.232;2023-06-24T09:59:56;43.88;;;42.03;;
15816;SDS011;8009;50.070;8.232;2023-06-24T10:02:28;24.13;;;23.23;;
15816;SDS011;8009;50.070;8.232;2023-06-24T10:05:02;23.52;;;22.63;;
15816;SDS011;8009;50.070;8.232;2023-06-24T10:07:34;25.30;;;24.33;;
15816;SDS011;8009;50.070;8.232;2023-06-24T10:10:03;17.63;;;16.92;;
15816;SDS011;8009;50.070;8.232;2023-06-24T10:12:31;16.50;;;15.90;;
15816;SDS011;8009;50.070;8.232;2023-06-24T10:15:01;29.55;;;28.40;;
15816;SDS011;8009;50.070;8.232;2023-06-24T10:17:30;18.35;;;17.65;;
15816;SDS011;8009;50.070;8.232;2023-06-24T10:19:58;16.58;;;15.98;;
15816;SDS011;8009;50.070;8.232;2023-06-24T10:22:34;21.15;;;20.35;;
15816;SDS011;8009;50.070;8.232;2023-06-24T10:25:05;18.13;;;17.42;;
15816;SDS011;8009;50.070;8.232;2023-06-24T10:27:38;16.63;;;16.02;;
15816;SDS011;8009;50.070;8.232;2023-06-24T10:30:08;16.70;;;16.10;;
15816;SDS011;8009;50.070;8.232;2023-06-24T10:32:44;16.30;;;15.70;;
15816;SDS011;8009;50.070;8.232;2023-06-24T10:35:23;16.27;;;15.68;;
15816;SDS011;8009;50.070;8.232;2023-06-24T10:37:55;15.00;;;14.40;;
15816;SDS011;8009;50.070;8.232;2023-06-24T10:40:36;14.77;;;14.20;;
15816;SDS011;8009;50.070;8.232;2023-06-24T10:43:22;19.25;;;18.55;;
15816;SDS011;8009;50.070;8.232;2023-06-24T10:45:54;18.15;;;17.45;;
15816;SDS011;8009;50.070;8.232;2023-06-24T10:48:24;15.02;;;14.43;;
15816;SDS011;8009;50.070;8.232;2023-06-24T10:50:55;19.60;;;18.88;;
15816;SDS011;8009;50.070;8.232;2023-06-24T10:53:24;16.33;;;15.73;;
15816;SDS011;8009;50.070;8.232;2023-06-24T10:55:52;15.52;;;14.93;;
15816;SDS011;8009;50.070;8.232;2023-06-24T10:58:26;14.52;;;14.02;;
15816;SDS011;8009;50.070;8.232;2023-06-24T11:01:05;15.07;;;14.48;;
15816;SDS011;8009;50.070;8.232;2023-06-24T11:03:34;15.73;;;15.13;;
15816;SDS011;8009;50.070;8.232;2023-06-24T11:06:06;15.25;;;14.65;;
15816;SDS011;8009;50.070;8.232;2023-06-24T11:08:42;15.73;;;15.13;;
15816;SDS011;8009;50.070;8.232;2023-06-24T11:11:17;14.32;;;13.82;;
15816;SDS011;8009;50.070;8.232;2023-06-24T11:13:47;17.30;;;16.65;;
15816;SDS011;8009;50.070;8.232;2023-06-24T11:16:20;23.15;;;22.25;;
15816;SDS011;8009;50.070;8.232;2023-06-24T11:18:48;15.75;;;15.15;;
15816;SDS011;8009;50.070;8.232;2023-06-24T11:21:19;15.32;;;14.73;;
15816;SDS011;8009;50.070;8.232;2023-06-24T11:23:48;17.52;;;16.83;;
15816;SDS011;8009;50.070;8.232;2023-06-24T11:26:17;15.48;;;14.88;;
15816;SDS011;8009;50.070;8.232;2023-06-24T11:28:47;15.20;;;14.60;;
15816;SDS011;8009;50.070;8.232;2023-06-24T11:31:15;14.30;;;13.80;;
15816;SDS011;8009;50.070;8.232;2023-06-24T11:33:47;15.35;;;14.75;;
15816;SDS011;8009;50.070;8.232;2023-06-24T11:36:20;14.70;;;14.10;;
15816;SDS011;8009;50.070;8.232;2023-06-24T11:38:48;14.68;;;14.07;;
15816;SDS011;8009;50.070;8.232;2023-06-24T11:41:20;14.55;;;14.05;;
15816;SDS011;8009;50.070;8.232;2023-06-24T11:43:50;17.63;;;16.95;;
15816;SDS011;8009;50.070;8.232;2023-06-24T11:46:23;20.23;;;19.42;;
15816;SDS011;8009;50.070;8.232;2023-06-24T11:48:52;18.88;;;18.17;;
15816;SDS011;8009;50.070;8.232;2023-06-24T11:51:23;18.55;;;17.85;;
15816;SDS011;8009;50.070;8.232;2023-06-24T11:53:52;18.85;;;18.15;;
15816;SDS011;8009;50.070;8.232;2023-06-24T11:56:20;17.63;;;16.92;;
15816;SDS011;8009;50.070;8.232;2023-06-24T11:59:03;17.38;;;16.73;;
15816;SDS011;8009;50.070;8.232;2023-06-24T12:01:32;17.03;;;16.43;;
15816;SDS011;8009;50.070;8.232;2023-06-24T12:04:09;16.88;;;16.27;;
15816;SDS011;8009;50.070;8.232;2023-06-24T12:06:41;15.70;;;15.10;;
15816;SDS011;8009;50.070;8.232;2023-06-24T12:09:09;17.15;;;16.52;;
15816;SDS011;8009;50.070;8.232;2023-06-24T12:11:38;20.63;;;19.83;;
15816;SDS011;8009;50.070;8.232;2023-06-24T12:14:06;18.85;;;18.15;;
15816;SDS011;8009;50.070;8.232;2023-06-24T12:16:35;20.67;;;19.88;;
15816;SDS011;8009;50.070;8.232;2023-06-24T12:19:03;18.70;;;17.92;;
15816;SDS011;8009;50.070;8.232;2023-06-24T12:21:31;14.68;;;14.07;;
15816;SDS011;8009;50.070;8.232;2023-06-24T12:24:03;15.13;;;14.55;;
15816;SDS011;8009;50.070;8.232;2023-06-24T12:26:32;17.90;;;17.20;;
15816;SDS011;8009;50.070;8.232;2023-06-24T12:29:01;21.52;;;20.70;;
15816;SDS011;8009;50.070;8.232;2023-06-24T12:31:30;17.88;;;17.17;;
15816;SDS011;8009;50.070;8.232;2023-06-24T12:33:58;21.75;;;20.95;;
15816;SDS011;8009;50.070;8.232;2023-06-24T12:36:26;19.27;;;18.58;;
15816;SDS011;8009;50.070;8.232;2023-06-24T12:38:55;19.63;;;18.92;;
15816;SDS011;8009;50.070;8.232;2023-06-24T12:41:26;18.52;;;17.83;;
15816;SDS011;8009;50.070;8.232;2023-06-24T12:43:54;16.33;;;15.73;;
15816;SDS011;8009;50.070;8.232;2023-06-24T12:46:24;17.63;;;16.95;;
15816;SDS011;8009;50.070;8.232;2023-06-24T12:48:52;19.08;;;18.35;;
15816;SDS011;8009;50.070;8.232;2023-06-24T12:51:21;19.98;;;19.20;;
15816;SDS011;8009;50.070;8.232;2023-06-24T12:53:50;20.83;;;20.02;;
15816;SDS011;8009;50.070;8.232;2023-06-24T12:56:18;18.20;;;17.50;;
15816;SDS011;8009;50.070;8.232;2023-06-24T12:58:49;19.17;;;18.45;;
15816;SDS011;8009;50.070;8.232;2023-06-24T13:01:17;20.20;;;19.42;;
15816;SDS011;8009;50.070;8.232;2023-06-24T13:03:46;16.55;;;15.95;;
15816;SDS011;8009;50.070;8.232;2023-06-24T13:06:15;14.68;;;14.07;;
15816;SDS011;8009;50.070;8.232;2023-06-24T13:08:43;16.60;;;15.93;;
15816;SDS011;8009;50.070;8.232;2023-06-24T13:11:12;22.55;;;21.65;;
15816;SDS011;8009;50.070;8.232;2023-06-24T13:13:40;19.92;;;19.17;;
15816;SDS011;8009;50.070;8.232;2023-06-24T13:16:14;17.90;;;17.20;;
15816;SDS011;8009;50.070;8.232;2023-06-24T13:18:42;17.98;;;17.27;;
15816;SDS011;8009;50.070;8.232;2023-06-24T13:21:10;18.50;;;17.80;;
15816;SDS011;8009;50.070;8.232;2023-06-24T13:23:39;16.95;;;16.27;;
15816;SDS011;8009;50.070;8.232;2023-06-24T13:26:07;16.90;;;16.27;;
15816;SDS011;8009;50.070;8.232;2023-06-24T13:28:36;16.08;;;15.48;;
15816;SDS011;8009;50.070;8.232;2023-06-24T13:31:04;16.20;;;15.60;;
15816;SDS011;8009;50.070;8.232;2023-06-24T13:33:35;15.80;;;15.20;;
15816;SDS011;8009;50.070;8.232;2023-06-24T13:36:04;15.50;;;14.90;;
15816;SDS011;8009;50.070;8.232;2023-06-24T13:38:36;16.70;;;16.10;;
15816;SDS011;8009;50.070;8.232;2023-06-24T13:41:04;17.50;;;16.80;;
15816;SDS011;8009;50.070;8.232;2023-06-24T13:43:32;17.48;;;16.77;;
15816;SDS011;8009;50.070;8.232;2023-06-24T13:46:01;16.88;;;16.27;;
15816;SDS011;8009;50.070;8.232;2023-06-24T13:48:29;17.08;;;16.45;;
15816;SDS011;8009;50.070;8.232;2023-06-24T13:51:00;17.10;;;16.50;;
15816;SDS011;8009;50.070;8.232;2023-06-24T13:53:28;16.25;;;15.65;;
15816;SDS011;8009;50.070;8.232;2023-06-24T13:55:56;17.23;;;16.58;;
15816;SDS011;8009;50.070;8.232;2023-06-24T13:58:25;16.92;;;16.33;;
15816;SDS011;8009;50.070;8.232;2023-06-24T14:00:55;15.48;;;14.88;;
15816;SDS011;8009;50.070;8.232;2023-06-24T14:03:23;16.67;;;16.08;;
15816;SDS011;8009;50.070;8.232;2023-06-24T14:05:51;15.77;;;15.18;;
15816;SDS011;8009;50.070;8.232;2023-06-24T14:08:24;15.85;;;15.25;;
15816;SDS011;8009;50.070;8.232;2023-06-24T14:10:52;14.90;;;14.30;;
15816;SDS011;8009;50.070;8.232;2023-06-24T14:13:21;14.50;;;14.00;;
15816;SDS011;8009;50.070;8.232;2023-06-24T14:15:49;15.25;;;14.65;;
15816;SDS011;8009;50.070;8.232;2023-06-24T14:18:18;14.52;;;13.98;;
15816;SDS011;8009;50.070;8.232;2023-06-24T14:20:46;14.73;;;14.23;;
15816;SDS011;8009;50.070;8.232;2023-06-24T14:23:15;19.65;;;18.85;;
15816;SDS011;8009;50.070;8.232;2023-06-24T14:25:46;19.00;;;18.30;;
15816;SDS011;8009;50.070;8.232;2023-06-24T14:28:14;19.17;;;18.48;;
15816;SDS011;8009;50.070;8.232;2023-06-24T14:30:42;19.98;;;19.17;;
15816;SDS011;8009;50.070;8.232;2023-06-24T14:33:11;21.48;;;20.67;;
15816;SDS011;8009;50.070;8.232;2023-06-24T14:35:40;21.27;;;20.48;;
15816;SDS011;8009;50.070;8.232;2023-06-24T14:38:08;21.20;;;20.40;;
15816;SDS011;8009;50.070;8.232;2023-06-24T14:40:37;15.38;;;14.77;;
15816;SDS011;8009;50.070;8.232;2023-06-24T14:43:08;14.82;;;14.27;;
15816;SDS011;8009;50.070;8.232;2023-06-24T14:45:36;14.55;;;14.05;;
15816;SDS011;8009;50.070;8.232;2023-06-24T14:48:04;15.43;;;14.82;;